createdAt,value
2022-08-19T00:02:06.004Z,1003.53
2022-08-19T00:07:10.183Z,1003.57
2022-08-19T00:12:14.359Z,1003.57
2022-08-19T00:17:18.483Z,1003.64
2022-08-19T00:22:20.761Z,1003.56
2022-08-19T00:27:26.842Z,1003.61
2022-08-19T00:32:29.078Z,1003.61
2022-08-19T00:37:33.219Z,1003.57
2022-08-19T00:42:37.407Z,1003.53
2022-08-19T00:47:41.557Z,1003.54
2022-08-19T00:52:43.830Z,1003.57
2022-08-19T00:57:47.986Z,1003.60
2022-08-19T01:02:52.421Z,1003.44
2022-08-19T01:07:56.284Z,1003.48
2022-08-19T01:13:00.489Z,1003.54
2022-08-19T01:18:04.622Z,1003.51
2022-08-19T01:23:08.788Z,1003.55
2022-08-19T01:28:12.954Z,1003.58
2022-08-19T01:33:17.074Z,1003.49
2022-08-19T01:38:21.281Z,1003.41
2022-08-19T01:43:25.421Z,1003.37
2022-08-19T01:48:29.591Z,1003.39
2022-08-19T01:53:33.904Z,1003.53
2022-08-19T01:58:37.888Z,1003.48
2022-08-19T02:03:42.078Z,1003.41
2022-08-19T02:08:46.243Z,1003.28
2022-08-19T02:13:50.395Z,1003.44
2022-08-19T02:18:54.566Z,1003.25
2022-08-19T02:23:58.722Z,1003.34
2022-08-19T02:29:02.832Z,1003.41
2022-08-19T02:34:07.019Z,1003.52
2022-08-19T02:39:11.203Z,1003.35
2022-08-19T02:44:29.033Z,1003.44
2022-08-19T02:49:19.499Z,1003.40
2022-08-19T02:54:23.699Z,1003.44
2022-08-19T02:59:27.812Z,1003.42
2022-08-19T03:04:31.969Z,1003.44
2022-08-19T03:09:36.146Z,1003.55
2022-08-19T03:14:40.307Z,1003.67
2022-08-19T03:19:44.440Z,1003.57
2022-08-19T03:24:48.642Z,1003.47
2022-08-19T03:29:52.785Z,1003.52
2022-08-19T03:34:56.931Z,1003.51
2022-08-19T03:40:01.240Z,1003.45
2022-08-19T03:45:05.274Z,1003.46
2022-08-19T03:50:09.436Z,1003.55
2022-08-19T03:55:13.574Z,1003.52
2022-08-19T04:00:17.839Z,1003.62
2022-08-19T04:05:21.906Z,1003.63
2022-08-19T04:10:26.045Z,1003.60
2022-08-19T04:15:30.223Z,1003.62
2022-08-19T04:20:34.414Z,1003.68
2022-08-19T04:25:38.538Z,1003.65
2022-08-19T04:30:42.702Z,1003.61
2022-08-19T04:35:46.878Z,1003.70
2022-08-19T04:40:51.039Z,1003.80
2022-08-19T04:45:56.824Z,1003.88
2022-08-19T04:50:59.347Z,1003.91
2022-08-19T04:56:03.506Z,1003.91
2022-08-19T05:01:07.746Z,1003.92
2022-08-19T05:06:11.818Z,1004.05
2022-08-19T05:11:15.996Z,1004.08
2022-08-19T05:16:20.176Z,1004.03
2022-08-19T05:21:24.337Z,1004.10
2022-08-19T05:26:28.453Z,1004.10
2022-08-19T05:31:32.624Z,1004.08
2022-08-19T05:36:36.769Z,1004.01
2022-08-19T05:41:40.932Z,1003.99
2022-08-19T05:46:45.122Z,1003.99
2022-08-19T05:51:49.260Z,1004.00
2022-08-19T05:56:53.434Z,1004.03
2022-08-19T06:01:57.609Z,1004.10
2022-08-19T06:07:01.756Z,1004.04
2022-08-19T06:12:05.935Z,1004.10
2022-08-19T06:17:10.088Z,1004.06
2022-08-19T06:22:12.373Z,1004.06
2022-08-19T06:27:16.518Z,1003.97
2022-08-19T06:32:20.659Z,1004.03
2022-08-19T06:37:24.807Z,1003.96
2022-08-19T06:42:28.999Z,1003.91
2022-08-19T06:47:33.165Z,1003.88
2022-08-19T06:52:38.372Z,1003.93
2022-08-19T06:57:41.452Z,1003.89
2022-08-19T07:02:49.807Z,1003.88
2022-08-19T07:07:49.801Z,1003.91
2022-08-19T07:12:54.250Z,1003.97
2022-08-19T07:17:58.098Z,1003.84
2022-08-19T07:23:07.047Z,1003.88
2022-08-19T07:28:06.400Z,1003.88
2022-08-19T07:33:10.562Z,1003.98
2022-08-19T07:38:14.711Z,1004.09
2022-08-19T07:43:18.890Z,1004.03
2022-08-19T07:48:23.051Z,1004.15
2022-08-19T07:58:31.375Z,1004.16
2022-08-19T08:03:35.562Z,1004.27
2022-08-19T08:08:44.188Z,1004.35
2022-08-19T08:13:43.846Z,1004.44
2022-08-19T08:18:50.393Z,1004.56
2022-08-19T08:23:55.677Z,1004.51
2022-08-19T08:28:56.345Z,1004.54
2022-08-19T08:34:00.487Z,1004.64
2022-08-19T08:39:04.636Z,1004.54
2022-08-19T08:44:08.827Z,1004.55
2022-08-19T08:49:12.964Z,1004.57
2022-08-19T08:54:17.093Z,1004.48
2022-08-19T08:59:21.258Z,1004.43
2022-08-19T09:04:25.469Z,1004.38
2022-08-19T09:09:29.607Z,1004.30
2022-08-19T09:14:49.267Z,1004.35
2022-08-19T09:19:37.912Z,1004.33
2022-08-19T09:24:42.056Z,1004.38
2022-08-19T09:29:46.215Z,1004.37
2022-08-19T09:34:51.328Z,1004.39
2022-08-19T09:39:54.552Z,1004.25
2022-08-19T09:44:58.706Z,1004.24
2022-08-19T09:50:03.598Z,1004.27
2022-08-19T09:55:08.131Z,1004.14
2022-08-19T10:00:11.209Z,1004.23
2022-08-19T10:05:15.313Z,1004.22
2022-08-19T10:10:19.483Z,1004.21
2022-08-19T10:15:28.989Z,1004.20
2022-08-19T10:20:27.836Z,1004.24
2022-08-19T10:25:31.939Z,1004.18
2022-08-19T10:30:36.131Z,1004.32
2022-08-19T10:35:42.647Z,1004.29
2022-08-19T10:40:44.451Z,1004.35
2022-08-19T10:45:52.207Z,1004.30
2022-08-19T10:50:52.766Z,1004.31
2022-08-19T10:55:56.944Z,1004.31
2022-08-19T11:01:01.111Z,1004.30
2022-08-19T11:06:05.214Z,1004.39
2022-08-19T11:11:09.374Z,1004.25
2022-08-19T11:16:13.528Z,1004.21
2022-08-19T11:21:17.731Z,1004.20
2022-08-19T11:26:21.867Z,1004.17
2022-08-19T11:31:29.081Z,1004.17
2022-08-19T11:36:30.187Z,1004.14
2022-08-19T11:41:34.325Z,1004.07
2022-08-19T11:46:38.522Z,1004.08
2022-08-19T11:51:40.779Z,1004.02
2022-08-19T11:56:44.941Z,1003.92
2022-08-19T12:01:49.084Z,1004.00
2022-08-19T12:06:53.235Z,1003.98
2022-08-19T12:11:57.409Z,1003.97
2022-08-19T12:17:01.608Z,1003.92
2022-08-19T12:22:05.715Z,1003.81
2022-08-19T12:27:12.577Z,1003.88
2022-08-19T12:32:14.058Z,1003.85
2022-08-19T12:37:18.434Z,1003.96
2022-08-19T12:42:22.336Z,1003.95
2022-08-19T12:47:26.498Z,1003.85
2022-08-19T12:52:30.752Z,1003.87
2022-08-19T12:57:34.862Z,1003.81
2022-08-19T13:02:39.349Z,1003.79
2022-08-19T13:07:43.181Z,1003.64
2022-08-19T13:12:47.301Z,1003.66
2022-08-19T13:17:51.477Z,1003.62
2022-08-19T13:22:55.635Z,1003.59
2022-08-19T13:27:59.813Z,1003.47
2022-08-19T13:33:03.963Z,1003.42
2022-08-19T13:38:11.680Z,1003.44
2022-08-19T13:43:13.494Z,1003.37
2022-08-19T13:48:16.401Z,1003.31
2022-08-19T13:53:20.602Z,1003.24
2022-08-19T13:58:24.768Z,1003.21
2022-08-19T14:03:28.889Z,1003.18
2022-08-19T14:08:33.109Z,1003.15
2022-08-19T14:13:37.220Z,1003.23
2022-08-19T14:18:41.425Z,1003.29
2022-08-19T14:23:45.614Z,1003.28
2022-08-19T14:28:49.687Z,1003.36
2022-08-19T14:33:53.867Z,1003.35
2022-08-19T14:38:58.002Z,1003.28
2022-08-19T14:44:02.138Z,1003.40
2022-08-19T14:49:09.300Z,1003.52
2022-08-19T14:54:10.475Z,1003.50
2022-08-19T14:59:14.706Z,1003.41
2022-08-19T15:04:18.824Z,1003.49
2022-08-19T15:09:23.029Z,1003.44
2022-08-19T15:14:27.151Z,1003.42
2022-08-19T15:19:31.318Z,1003.46
2022-08-19T15:24:35.419Z,1003.42
2022-08-19T15:29:39.584Z,1003.51
2022-08-19T15:34:43.779Z,1003.55
2022-08-19T15:39:47.967Z,1003.61
2022-08-19T15:44:52.080Z,1003.67
2022-08-19T15:50:00.567Z,1003.79
2022-08-19T15:55:00.388Z,1003.72
2022-08-19T16:00:04.531Z,1003.69
2022-08-19T16:05:08.686Z,1003.67
2022-08-19T16:10:26.387Z,1003.76
2022-08-19T16:15:17.026Z,1003.80
2022-08-19T16:20:24.109Z,1003.82
2022-08-19T16:25:25.363Z,1003.82
2022-08-19T16:30:29.525Z,1003.91
2022-08-19T16:35:33.677Z,1003.95
2022-08-19T16:40:37.809Z,1003.83
2022-08-19T16:45:44.051Z,1003.77
2022-08-19T16:50:49.622Z,1003.80
2022-08-19T16:55:50.303Z,1003.86
2022-08-19T17:00:54.459Z,1003.82
2022-08-19T17:05:58.655Z,1003.79
2022-08-19T17:11:17.784Z,1003.85
2022-08-19T17:16:06.927Z,1003.77
2022-08-19T17:21:09.221Z,1003.79
2022-08-19T17:26:18.049Z,1003.84
2022-08-19T17:31:17.530Z,1003.80
2022-08-19T17:41:25.842Z,1003.76
2022-08-19T17:46:29.995Z,1003.79
2022-08-19T17:51:32.246Z,1003.80
2022-08-19T17:56:36.405Z,1003.68
2022-08-19T18:01:53.516Z,1003.60
2022-08-19T18:06:46.076Z,1003.54
2022-08-19T18:11:52.783Z,1003.62
2022-08-19T18:16:53.040Z,1003.58
2022-08-19T18:21:57.214Z,1003.61
2022-08-19T18:27:01.403Z,1003.64
2022-08-19T18:32:05.519Z,1003.63
2022-08-19T18:37:09.730Z,1003.65
2022-08-19T18:42:13.813Z,1003.75
2022-08-19T18:47:18.006Z,1003.82
2022-08-19T18:52:22.173Z,1003.77
2022-08-19T18:57:26.342Z,1003.74
2022-08-19T19:02:30.477Z,1003.84
2022-08-19T19:07:34.640Z,1003.82
2022-08-19T19:12:38.821Z,1003.97
2022-08-19T19:17:42.973Z,1004.01
2022-08-19T19:22:47.113Z,1004.02
2022-08-19T19:27:51.347Z,1004.11
2022-08-19T19:32:55.441Z,1004.16
2022-08-19T19:37:59.609Z,1004.14
2022-08-19T19:43:03.779Z,1004.32
2022-08-19T19:48:07.902Z,1004.23
2022-08-19T19:53:12.072Z,1004.28
2022-08-19T19:58:16.251Z,1004.32
2022-08-19T20:03:20.409Z,1004.32
2022-08-19T20:08:24.571Z,1004.45
2022-08-19T20:13:28.738Z,1004.48
2022-08-19T20:18:32.920Z,1004.57
2022-08-19T20:23:37.049Z,1004.56
2022-08-19T20:28:47.428Z,1004.58
2022-08-19T20:33:45.327Z,1004.59
2022-08-19T20:38:49.530Z,1004.56
2022-08-19T20:43:53.661Z,1004.51
2022-08-19T20:48:57.858Z,1004.53
2022-08-19T20:54:01.982Z,1004.54
2022-08-19T20:59:06.140Z,1004.49
2022-08-19T21:04:10.302Z,1004.54
2022-08-19T21:14:18.622Z,1004.51
2022-08-19T21:19:24.120Z,1004.56
2022-08-19T21:24:31.450Z,1004.60
2022-08-19T21:29:31.083Z,1004.66
2022-08-19T21:34:35.306Z,1004.66
2022-08-19T21:39:39.452Z,1004.66
2022-08-19T21:44:45.538Z,1004.72
2022-08-19T21:49:47.699Z,1004.64
2022-08-19T21:54:51.876Z,1004.67
2022-08-19T21:59:56.032Z,1004.64
2022-08-19T22:05:00.202Z,1004.57
2022-08-19T22:10:04.374Z,1004.62
2022-08-19T22:15:13.842Z,1004.58
2022-08-19T22:20:12.760Z,1004.56
2022-08-19T22:30:21.125Z,1004.59
2022-08-19T22:35:25.202Z,1004.61
2022-08-19T22:40:29.318Z,1004.65
2022-08-19T22:45:33.490Z,1004.61
2022-08-19T22:50:37.615Z,1004.73
2022-08-19T22:55:41.803Z,1004.80
2022-08-19T23:00:46.050Z,1004.76
2022-08-19T23:05:50.113Z,1004.67
2022-08-19T23:10:54.293Z,1004.72
2022-08-19T23:15:58.474Z,1004.91
2022-08-19T23:21:00.746Z,1004.95
2022-08-19T23:31:08.984Z,1005.04
2022-08-19T23:36:13.148Z,1005.14
2022-08-19T23:41:17.369Z,1005.12
2022-08-19T23:46:27.982Z,1005.13
2022-08-19T23:51:25.650Z,1005.09
2022-08-19T23:56:29.818Z,1005.20
